Time;durP1;ratioP1;P1;durP2;ratioP2;P2;SDS_P1;SDS_P2;PMS_P1;PMS_P2;Temp;Humidity;BMP_temperature;BMP_pressure;BME280_temperature;BME280_humidity;BME280_pressure;Samples;Min_cycle;Max_cycle;Signal;HPM_P1;HPM_P2
2021/12/24 00:00:38;;;;;;;66.90;31.15;;;;;;;-2.53;70.61;94641.84;5052989;28;20410;-80
2021/12/24 00:03:04;;;;;;;63.58;28.20;;;;;;;-2.55;70.53;94640.34;5052924;28;20458;-78
2021/12/24 00:05:31;;;;;;;63.17;30.80;;;;;;;-2.42;70.24;94643.22;5052017;28;20025;-80
2021/12/24 00:07:57;;;;;;;57.67;26.83;;;;;;;-2.44;69.56;94644.75;5052904;28;20108;-79
2021/12/24 00:10:23;;;;;;;62.00;27.05;;;;;;;-2.40;70.17;94629.50;5052136;28;20419;-80
2021/12/24 00:12:57;;;;;;;54.05;26.58;;;;;;;-2.67;70.27;94616.94;5052890;28;20052;-79
2021/12/24 00:15:48;;;;;;;87.00;37.50;;;;;;;-3.06;73.55;94624.16;5051792;28;20033;-79
2021/12/24 00:18:23;;;;;;;72.25;34.53;;;;;;;-3.07;73.17;94616.59;5052371;28;20052;-79
2021/12/24 00:37:19;;;;;;;61.88;28.25;;;;;;;-2.52;70.21;94635.34;5062321;28;20102;-79
2021/12/24 00:39:57;;;;;;;66.35;29.25;;;;;;;-2.71;70.79;94632.16;5053147;28;20048;-80
2021/12/24 00:42:23;;;;;;;72.28;30.73;;;;;;;-2.77;71.65;94628.44;5051617;28;20031;-80
2021/12/24 00:44:48;;;;;;;84.85;35.80;;;;;;;-2.82;71.19;94618.22;5052524;28;20021;-80
2021/12/24 00:47:14;;;;;;;84.15;38.13;;;;;;;-2.49;71.05;94615.97;5052732;28;20099;-79
2021/12/24 00:49:39;;;;;;;90.68;38.58;;;;;;;-2.66;71.79;94602.47;5052455;28;20025;-80
2021/12/24 00:52:44;;;;;;;79.72;36.38;;;;;;;-2.55;72.94;94613.75;5052696;28;20044;-78
2021/12/24 00:55:09;;;;;;;72.05;34.47;;;;;;;-2.53;72.32;94588.69;5052316;28;20076;-79
2021/12/24 00:57:37;;;;;;;118.05;42.72;;;;;;;-2.50;71.58;94587.88;5052552;28;20025;-79
2021/12/24 01:00:18;;;;;;;123.25;43.10;;;;;;;-2.53;70.94;94592.09;5052723;28;20032;-79
2021/12/24 01:02:44;;;;;;;94.60;34.67;;;;;;;-2.53;71.38;94588.69;5055614;28;20063;-80
2021/12/24 01:05:10;;;;;;;72.72;31.20;;;;;;;-2.44;71.16;94586.25;5056333;28;20032;-80
2021/12/24 01:07:36;;;;;;;80.45;32.70;;;;;;;-2.44;70.52;94591.59;5056671;28;20086;-79
2021/12/24 01:10:04;;;;;;;96.70;35.45;;;;;;;-2.59;72.36;94580.38;5056625;28;20029;-79
2021/12/24 01:12:30;;;;;;;127.13;44.50;;;;;;;-2.51;71.67;94586.38;5056402;28;20025;-79
2021/12/24 01:14:55;;;;;;;121.22;44.50;;;;;;;-2.66;72.76;94589.19;5055060;28;20555;-79
2021/12/24 01:19:57;;;;;;;129.35;45.58;;;;;;;-2.39;71.36;94591.16;5056246;28;20021;-79
2021/12/24 01:25:04;;;;;;;115.88;44.15;;;;;;;-2.42;72.05;94571.44;5056138;28;20035;-80
2021/12/24 01:38:23;;;;;;;80.75;34.03;;;;;;;-2.32;70.85;94556.47;5055515;28;20039;-78
2021/12/24 01:43:21;;;;;;;83.32;35.95;;;;;;;-2.43;71.16;94553.22;5055669;28;20425;-79
2021/12/24 01:45:50;;;;;;;88.72;35.65;;;;;;;-2.20;70.58;94552.53;5055425;28;20481;-79
2021/12/24 01:48:16;;;;;;;99.60;37.20;;;;;;;-2.42;70.78;94562.72;5055453;28;20045;-79
2021/12/24 01:50:45;;;;;;;96.38;38.42;;;;;;;-2.58;72.17;94565.94;5054316;28;20079;-79
2021/12/24 01:53:13;;;;;;;104.60;39.88;;;;;;;-2.34;72.30;94566.03;5055327;28;20521;-79
2021/12/24 01:55:39;;;;;;;111.20;40.90;;;;;;;-2.68;72.88;94562.28;5055222;28;20449;-79
2021/12/24 01:58:05;;;;;;;120.88;42.42;;;;;;;-3.07;75.17;94552.84;5055112;28;20107;-79
2021/12/24 02:00:36;;;;;;;138.15;47.63;;;;;;;-2.96;75.07;94553.50;5055130;28;20512;-79
2021/12/24 02:03:03;;;;;;;126.88;43.70;;;;;;;-3.16;75.31;94541.94;5055462;28;20033;-78
2021/12/24 02:05:31;;;;;;;119.65;44.05;;;;;;;-2.83;73.67;94539.69;5054958;28;20385;-78
2021/12/24 02:07:56;;;;;;;124.07;42.15;;;;;;;-2.99;74.12;94533.03;5055324;28;20021;-79
2021/12/24 02:10:22;;;;;;;112.22;42.28;;;;;;;-2.94;74.20;94532.59;5054990;28;20031;-79
2021/12/24 02:12:48;;;;;;;112.30;40.47;;;;;;;-2.82;74.17;94527.91;5054601;28;20100;-79
2021/12/24 02:28:36;;;;;;;70.28;28.92;;;;;;;-2.72;71.20;94506.50;5055005;28;20110;-79
2021/12/24 02:31:03;;;;;;;73.35;29.58;;;;;;;-2.90;71.82;94495.38;5055086;28;20027;-79
2021/12/24 02:33:29;;;;;;;79.88;32.90;;;;;;;-3.31;74.65;94488.25;5054577;28;20470;-79
2021/12/24 02:35:54;;;;;;;72.63;30.58;;;;;;;-3.09;73.89;94475.50;5054589;28;20031;-79
2021/12/24 02:38:20;;;;;;;78.32;35.08;;;;;;;-2.97;73.68;94482.94;5054339;28;20096;-80
2021/12/24 02:40:46;;;;;;;66.95;31.92;;;;;;;-2.97;73.82;94469.66;5054443;28;20111;-79
2021/12/24 02:43:15;;;;;;;73.43;33.28;;;;;;;-3.10;74.04;94463.38;5054382;28;20017;-79
2021/12/24 02:45:43;;;;;;;81.05;32.78;;;;;;;-2.95;73.56;94469.25;5054941;28;20431;-80
2021/12/24 02:48:25;;;;;;;60.97;29.58;;;;;;;-2.93;72.30;94467.69;5054475;28;20081;-79
2021/12/24 02:56:40;;;;;;;45.33;19.03;;;;;;;-2.86;71.67;94460.78;5032707;28;20065;-79
2021/12/24 02:59:11;;;;;;;64.05;26.60;;;;;;;-3.40;73.71;94449.66;5049935;28;20033;-80
2021/12/24 03:01:40;;;;;;;63.78;27.60;;;;;;;-3.11;73.37;94448.56;5053167;28;20028;-79
2021/12/24 03:04:06;;;;;;;56.38;25.33;;;;;;;-3.40;74.65;94441.72;5054041;28;20028;-79
2021/12/24 03:06:39;;;;;;;58.63;26.00;;;;;;;-3.31;74.25;94433.28;5054101;28;20087;-79
2021/12/24 03:09:08;;;;;;;54.15;24.85;;;;;;;-3.04;73.60;94458.34;5054132;28;20021;-79
2021/12/24 03:11:35;;;;;;;56.55;24.70;;;;;;;-3.23;73.80;94447.97;5052908;28;20063;-80
2021/12/24 03:14:01;;;;;;;55.58;25.75;;;;;;;-3.38;75.01;94448.53;5052754;28;20021;-79
2021/12/24 03:16:27;;;;;;;57.25;25.50;;;;;;;-3.26;73.76;94446.13;5054171;28;20276;-80
2021/12/24 03:18:53;;;;;;;54.50;23.85;;;;;;;-3.46;74.38;94416.03;5054089;28;20188;-79
2021/12/24 03:21:31;;;;;;;56.72;25.15;;;;;;;-3.77;76.73;94461.09;5052991;28;20470;-79
2021/12/24 03:26:31;;;;;;;48.08;23.83;;;;;;;-3.81;77.06;94449.75;5054315;28;20113;-79
2021/12/24 03:28:56;;;;;;;57.78;23.90;;;;;;;-3.59;76.31;94443.06;5056434;28;20059;-79
2021/12/24 03:31:22;;;;;;;46.28;23.35;;;;;;;-3.66;76.12;94435.19;5069743;28;20457;-79
2021/12/24 03:33:48;;;;;;;52.97;23.77;;;;;;;-3.64;76.67;94438.22;5058229;28;20060;-79
2021/12/24 03:36:15;;;;;;;55.05;23.70;;;;;;;-3.64;77.59;94454.13;5053760;28;20036;-80
2021/12/24 03:38:40;;;;;;;49.72;22.90;;;;;;;-3.58;76.56;94436.59;5053395;28;20037;-79
2021/12/24 03:41:06;;;;;;;51.53;23.42;;;;;;;-3.46;76.11;94439.91;5053378;28;20175;-79
2021/12/24 03:43:32;;;;;;;46.03;21.80;;;;;;;-3.45;75.62;94430.78;5053890;28;20029;-78
2021/12/24 03:46:05;;;;;;;50.63;23.05;;;;;;;-3.74;76.52;94425.78;5053240;28;20107;-80
2021/12/24 03:56:29;;;;;;;44.72;22.08;;;;;;;-3.39;74.77;94405.31;5054019;28;20043;-80
2021/12/24 03:58:54;;;;;;;48.88;21.85;;;;;;;-3.44;74.37;94403.09;5053456;28;20025;-79
2021/12/24 04:01:20;;;;;;;46.53;21.98;;;;;;;-3.47;75.14;94399.34;5052437;28;20359;-79
2021/12/24 04:03:46;;;;;;;44.95;21.83;;;;;;;-3.49;74.96;94396.34;5053525;28;20029;-79
2021/12/24 04:06:11;;;;;;;56.05;22.83;;;;;;;-3.44;75.50;94403.09;5053869;28;20025;-79
2021/12/24 04:08:37;;;;;;;44.97;21.92;;;;;;;-3.55;76.20;94402.47;5053008;28;20040;-79
2021/12/24 04:11:04;;;;;;;44.83;22.42;;;;;;;-3.42;75.53;94422.78;5053360;28;20397;-79
2021/12/24 04:13:31;;;;;;;46.80;22.70;;;;;;;-3.84;76.47;94410.75;5053474;28;20438;-79
2021/12/24 04:15:56;;;;;;;43.35;20.25;;;;;;;-3.67;76.03;94407.13;5053018;28;20032;-80
2021/12/24 04:26:21;;;;;;;33.72;16.70;;;;;;;-3.62;75.47;94398.00;5053534;28;20054;-80
2021/12/24 04:28:47;;;;;;;38.30;17.33;;;;;;;-3.62;75.40;94404.06;5052840;28;20482;-80
2021/12/24 04:31:13;;;;;;;33.97;17.35;;;;;;;-3.52;74.81;94410.38;5053420;28;20025;-80
2021/12/24 04:33:45;;;;;;;35.30;17.67;;;;;;;-3.63;76.17;94413.16;5052949;28;20094;-81
2021/12/24 05:03:08;;;;;;;45.13;22.02;;;;;;;-3.69;77.57;94421.97;5069958;28;20036;-79
2021/12/24 05:10:35;;;;;;;55.28;23.92;;;;;;;-3.54;77.15;94435.81;5069768;28;20021;-80
2021/12/24 05:13:00;;;;;;;53.13;23.65;;;;;;;-3.75;76.55;94418.97;5070088;28;20017;-80
2021/12/24 05:15:27;;;;;;;51.70;22.58;;;;;;;-3.86;76.62;94402.44;5070165;28;20021;-80
2021/12/24 05:23:06;;;;;;;49.17;22.20;;;;;;;-3.93;77.61;94380.16;5078779;28;20052;-79
2021/12/24 05:25:32;;;;;;;47.45;22.90;;;;;;;-3.85;78.22;94422.50;5081395;28;20026;-79
2021/12/24 05:27:57;;;;;;;47.92;22.30;;;;;;;-3.46;76.82;94411.47;5081434;28;20016;-79
2021/12/24 05:30:24;;;;;;;49.38;22.83;;;;;;;-3.92;78.78;94402.84;5080500;28;20025;-78
2021/12/24 05:32:50;;;;;;;46.67;23.30;;;;;;;-3.69;78.18;94425.38;5081251;28;20139;-79
2021/12/24 05:35:15;;;;;;;50.83;22.67;;;;;;;-3.87;78.62;94407.00;5081226;28;20016;-78
2021/12/24 05:37:41;;;;;;;52.05;25.95;;;;;;;-3.84;79.35;94413.41;5080334;28;20017;-79
2021/12/24 05:40:08;;;;;;;47.88;23.63;;;;;;;-3.77;78.72;94414.06;5081187;28;20032;-78
2021/12/24 05:42:33;;;;;;;56.60;24.73;;;;;;;-3.65;78.35;94412.81;5079944;28;20013;-80
2021/12/24 05:45:05;;;;;;;65.68;27.73;;;;;;;-3.65;77.70;94418.13;5080544;28;20009;-80
2021/12/24 05:47:31;;;;;;;;;;;;;;;-3.60;77.34;94396.47;5077687;28;20021;-79
2021/12/24 05:49:57;;;;;;;68.80;32.08;;;;;;;-3.59;76.87;94407.81;5075853;28;19924;-79
2021/12/24 05:52:23;;;;;;;70.25;34.30;;;;;;;-3.88;78.18;94389.56;5070925;28;20043;-78
2021/12/24 05:54:48;;;;;;;63.33;28.13;;;;;;;-4.02;77.79;94387.81;5059894;28;20021;-79
2021/12/24 05:57:14;;;;;;;51.95;26.25;;;;;;;-3.76;76.55;94367.09;5060705;28;20013;-80
2021/12/24 05:59:40;;;;;;;56.40;22.70;;;;;;;-4.30;78.53;94363.09;5066319;28;20098;-80
2021/12/24 06:02:06;;;;;;;55.28;23.15;;;;;;;-3.58;75.91;94357.00;5067920;28;20095;-80
2021/12/24 06:04:31;;;;;;;53.38;24.02;;;;;;;-3.46;74.42;94373.56;5058597;28;20086;-80
2021/12/24 06:06:58;;;;;;;51.20;21.63;;;;;;;-3.41;74.33;94363.25;5055429;28;20025;-80
2021/12/24 06:09:24;;;;;;;52.88;21.85;;;;;;;-3.04;73.10;94366.19;5055738;28;20102;-80
2021/12/24 06:11:50;;;;;;;46.42;22.05;;;;;;;-3.19;72.86;94391.41;5055681;28;20113;-78
2021/12/24 06:14:15;;;;;;;48.25;23.13;;;;;;;-3.23;73.52;94375.53;5055399;28;20450;-80
2021/12/24 06:16:48;;;;;;;53.10;24.38;;;;;;;-3.41;75.52;94394.34;5054004;28;20052;-80
2021/12/24 06:19:15;;;;;;;56.55;24.25;;;;;;;-3.30;74.43;94360.47;5055442;28;20021;-79
2021/12/24 06:21:41;;;;;;;43.08;22.08;;;;;;;-3.14;72.78;94383.75;5055775;28;20062;-79
2021/12/24 06:24:06;;;;;;;48.15;22.17;;;;;;;-2.85;72.52;94398.53;5056462;28;20114;-78
2021/12/24 06:26:32;;;;;;;45.28;21.27;;;;;;;-2.57;70.35;94398.09;5064748;28;20049;-79
2021/12/24 06:28:57;;;;;;;52.70;22.65;;;;;;;-2.30;69.93;94415.91;5061596;28;20095;-79
2021/12/24 06:31:23;;;;;;;46.13;22.95;;;;;;;-2.26;70.73;94419.25;5055229;28;20017;-80
2021/12/24 06:33:48;;;;;;;58.75;25.08;;;;;;;-2.26;71.18;94408.63;5055175;28;20385;-79
2021/12/24 06:36:14;;;;;;;54.08;22.10;;;;;;;-2.27;70.58;94432.97;5055059;28;20017;-79
2021/12/24 06:38:39;;;;;;;49.03;22.50;;;;;;;-2.32;70.18;94434.16;5054501;28;20108;-79
2021/12/24 06:41:05;;;;;;;52.25;22.85;;;;;;;-2.41;70.83;94447.97;5055153;28;20100;-79
2021/12/24 06:43:30;;;;;;;55.17;24.50;;;;;;;-2.19;70.62;94442.34;5054011;28;20416;-79
2021/12/24 06:45:57;;;;;;;66.10;28.08;;;;;;;-2.57;72.63;94445.19;5053530;28;20112;-79
2021/12/24 06:48:23;;;;;;;68.50;29.10;;;;;;;-2.56;72.83;94436.81;5056347;28;20074;-79
2021/12/24 06:50:50;;;;;;;71.82;34.33;;;;;;;-2.72;76.52;94452.63;5055490;28;20025;-79
2021/12/24 06:53:16;;;;;;;51.63;20.40;;;;;;;-2.85;74.24;94414.47;5054890;28;20032;-79
2021/12/24 06:55:42;;;;;;;49.80;24.00;;;;;;;-2.77;76.59;94426.50;5053412;28;20488;-78
2021/12/24 06:58:08;;;;;;;59.15;23.88;;;;;;;-2.36;74.83;94401.56;5054112;28;20115;-80
2021/12/24 07:00:34;;;;;;;49.80;21.67;;;;;;;-2.12;74.55;94422.84;5054330;28;20051;-80
2021/12/24 07:03:00;;;;;;;43.35;20.13;;;;;;;-2.14;72.82;94395.88;5054567;28;20024;-79
2021/12/24 07:05:26;;;;;;;44.58;21.05;;;;;;;-2.40;74.54;94406.19;5054575;28;20036;-79
2021/12/24 07:07:52;;;;;;;41.33;21.17;;;;;;;-2.13;74.56;94400.06;5053207;28;20048;-79
2021/12/24 07:10:18;;;;;;;42.92;20.60;;;;;;;-1.56;71.32;94407.00;5054077;28;20028;-80
2021/12/24 07:12:43;;;;;;;51.33;21.90;;;;;;;-1.84;72.00;94408.31;5054117;28;20025;-80
2021/12/24 07:15:10;;;;;;;39.80;21.08;;;;;;;-1.51;70.63;94416.44;5054132;28;20024;-79
2021/12/24 07:17:35;;;;;;;41.63;19.98;;;;;;;-1.44;70.24;94426.19;5053399;28;20417;-80
2021/12/24 07:20:02;;;;;;;40.20;19.25;;;;;;;-1.35;69.36;94421.06;5053418;28;20025;-80
2021/12/24 07:22:28;;;;;;;42.83;20.15;;;;;;;-1.80;71.08;94371.72;5053877;28;20481;-80
2021/12/24 07:24:53;;;;;;;61.72;26.80;;;;;;;-1.65;72.81;94409.47;5052685;28;20021;-77
2021/12/24 07:27:19;;;;;;;45.15;22.33;;;;;;;-1.42;70.81;94416.66;5054204;28;20035;-78
2021/12/24 07:29:44;;;;;;;44.92;21.77;;;;;;;-1.33;70.49;94416.06;5053281;28;20420;-79
2021/12/24 07:32:10;;;;;;;43.00;19.92;;;;;;;-1.38;70.74;94400.56;5052761;28;20059;-75
2021/12/24 07:34:35;;;;;;;44.38;20.75;;;;;;;-1.25;69.55;94432.69;5052330;28;20029;-75
2021/12/24 07:37:01;;;;;;;45.50;20.88;;;;;;;-1.07;68.77;94405.66;5053356;28;20048;-77
2021/12/24 07:39:27;;;;;;;38.22;19.83;;;;;;;-1.08;67.45;94418.25;5052415;28;20453;-77
2021/12/24 07:41:52;;;;;;;38.25;19.65;;;;;;;-0.91;67.03;94427.00;5053429;28;20041;-82
2021/12/24 07:44:19;;;;;;;50.13;19.95;;;;;;;-0.56;66.31;94419.41;5053624;28;20128;-76
2021/12/24 07:46:55;;;;;;;52.17;22.45;;;;;;;-0.73;65.85;94407.22;5052490;28;20477;-74
2021/12/24 07:52:08;;;;;;;45.42;20.20;;;;;;;0.11;63.51;94425.41;5053377;28;20025;-76
2021/12/24 07:54:48;;;;;;;48.55;21.58;;;;;;;0.04;62.58;94413.03;5053312;28;20351;-75
2021/12/24 07:57:15;;;;;;;38.78;18.55;;;;;;;-0.30;64.71;94421.47;5053272;28;20060;-76
2021/12/24 07:59:43;;;;;;;44.22;18.02;;;;;;;-0.22;63.33;94420.91;5053138;28;20021;-76
2021/12/24 08:02:15;;;;;;;35.72;17.58;;;;;;;0.22;62.88;94412.56;5053631;28;20023;-73
2021/12/24 08:04:41;;;;;;;35.67;16.70;;;;;;;0.48;61.27;94408.06;5053227;28;20021;-77
2021/12/24 08:07:07;;;;;;;31.88;15.07;;;;;;;0.80;58.88;94414.44;5051869;28;20032;-74
2021/12/24 08:09:36;;;;;;;40.22;15.13;;;;;;;0.68;59.62;94433.84;5053149;28;20031;-75
2021/12/24 08:12:06;;;;;;;29.60;14.77;;;;;;;1.38;56.80;94420.81;5051842;28;20028;-73
2021/12/24 08:14:31;;;;;;;27.98;14.65;;;;;;;0.57;57.68;94406.69;5053215;28;20371;-76
2021/12/24 08:16:57;;;;;;;28.50;14.43;;;;;;;0.14;59.46;94404.00;5051559;28;20131;-76
2021/12/24 08:19:22;;;;;;;32.25;15.45;;;;;;;1.47;58.56;94434.28;5053096;28;20035;-77
2021/12/24 08:21:48;;;;;;;31.13;15.48;;;;;;;1.43;55.10;94427.53;5053026;28;20117;-76
2021/12/24 08:24:14;;;;;;;28.50;15.10;;;;;;;2.58;52.82;94415.03;5053268;28;20124;-71
2021/12/24 08:26:40;;;;;;;29.40;13.48;;;;;;;0.96;56.86;94402.19;5052866;28;20034;-70
2021/12/24 08:29:05;;;;;;;32.65;14.00;;;;;;;1.80;54.40;94409.19;5051694;28;20025;-69
2021/12/24 08:31:32;;;;;;;24.83;13.15;;;;;;;2.16;53.24;94387.34;5052970;28;20027;-69
2021/12/24 08:33:58;;;;;;;28.05;14.00;;;;;;;1.83;54.34;94344.84;5051605;28;20024;-69
2021/12/24 08:36:24;;;;;;;28.83;12.50;;;;;;;1.87;53.48;94366.16;5052717;28;20079;-70
2021/12/24 08:38:49;;;;;;;22.42;11.65;;;;;;;2.76;49.89;94385.69;5052907;28;20029;-70
2021/12/24 08:41:14;;;;;;;27.17;13.02;;;;;;;2.98;51.01;94337.38;5051503;28;20021;-70
2021/12/24 08:43:40;;;;;;;24.63;12.90;;;;;;;2.89;49.73;94358.81;5052881;28;20021;-70
2021/12/24 08:46:05;;;;;;;22.92;12.63;;;;;;;2.99;50.04;94354.22;5052905;28;20064;-69
2021/12/24 08:48:31;;;;;;;22.42;12.20;;;;;;;3.20;49.67;94356.09;5051802;28;20048;-70
2021/12/24 08:50:57;;;;;;;27.55;12.70;;;;;;;2.99;50.28;94371.03;5053081;28;20040;-69
2021/12/24 08:53:23;;;;;;;34.80;12.80;;;;;;;3.41;49.55;94375.25;5052466;28;20378;-70
2021/12/24 08:55:49;;;;;;;21.83;12.05;;;;;;;3.52;49.20;94385.56;5052559;28;20106;-70
2021/12/24 08:58:15;;;;;;;26.50;13.40;;;;;;;5.00;45.87;94400.94;5052537;28;20049;-70
2021/12/24 09:00:42;;;;;;;25.85;14.02;;;;;;;5.02;44.90;94399.28;5052568;28;20040;-71
2021/12/24 09:03:08;;;;;;;31.63;15.23;;;;;;;4.06;48.17;94380.72;5052515;28;20218;-70
2021/12/24 09:05:33;;;;;;;27.88;14.55;;;;;;;5.43;45.42;94393.63;5052563;28;20031;-70
2021/12/24 09:07:59;;;;;;;34.95;15.77;;;;;;;4.54;47.14;94383.69;5052523;28;20045;-71
2021/12/24 09:10:25;;;;;;;36.08;16.88;;;;;;;4.99;46.66;94386.00;5051463;28;20032;-71
2021/12/24 09:12:50;;;;;;;31.60;15.38;;;;;;;6.08;43.50;94377.88;5052739;28;20032;-71
2021/12/24 09:15:18;;;;;;;23.00;13.07;;;;;;;4.67;45.99;94353.22;5052649;28;20351;-71
2021/12/24 09:17:46;;;;;;;21.23;12.95;;;;;;;4.76;45.96;94360.50;5052361;28;20363;-71
2021/12/24 09:20:24;;;;;;;27.13;12.60;;;;;;;4.10;47.08;94341.03;5052233;28;20048;-71
2021/12/24 09:22:51;;;;;;;28.83;14.23;;;;;;;4.78;46.35;94361.53;5054098;28;20021;-69
2021/12/24 09:25:18;;;;;;;25.13;13.23;;;;;;;5.92;43.84;94356.72;5056061;28;20044;-71
2021/12/24 09:27:43;;;;;;;25.77;13.80;;;;;;;5.41;45.09;94352.94;5054821;28;20024;-70
2021/12/24 09:30:10;;;;;;;24.15;14.55;;;;;;;6.18;43.69;94367.78;5054739;28;20029;-69
2021/12/24 09:32:36;;;;;;;25.33;13.98;;;;;;;5.56;43.95;94353.03;5056221;28;20051;-70
2021/12/24 09:35:03;;;;;;;26.58;14.95;;;;;;;6.79;42.65;94358.56;5055679;28;20025;-71
2021/12/24 09:37:28;;;;;;;34.60;15.00;;;;;;;7.44;40.38;94347.03;5055784;28;20021;-70
2021/12/24 09:39:54;;;;;;;26.88;16.33;;;;;;;6.12;43.08;94341.91;5055839;28;20025;-70
2021/12/24 09:42:19;;;;;;;29.70;15.07;;;;;;;5.56;45.40;94316.09;5054487;28;20096;-70
2021/12/24 09:44:45;;;;;;;28.98;15.20;;;;;;;5.21;46.36;94324.66;5056161;28;20021;-71
2021/12/24 09:47:10;;;;;;;25.98;13.88;;;;;;;5.93;44.31;94310.44;5055965;28;20441;-71
2021/12/24 09:49:36;;;;;;;23.10;13.60;;;;;;;7.76;42.07;94331.00;5055501;28;20492;-70
2021/12/24 09:52:03;;;;;;;25.23;14.65;;;;;;;9.03;38.92;94335.25;5054386;28;20028;-71
2021/12/24 09:54:29;;;;;;;26.75;15.95;;;;;;;6.49;43.22;94310.00;5054410;28;20025;-70
2021/12/24 09:56:57;;;;;;;29.50;16.98;;;;;;;6.88;43.19;94311.84;5055543;28;20472;-71
2021/12/24 09:59:23;;;;;;;31.50;15.68;;;;;;;7.63;42.21;94319.78;5055214;28;20067;-71
2021/12/24 10:01:54;;;;;;;25.67;14.43;;;;;;;7.30;42.28;94323.50;5055166;28;20040;-71
2021/12/24 10:04:23;;;;;;;24.13;14.20;;;;;;;7.81;40.44;94303.28;5055573;28;20029;-74
2021/12/24 10:06:51;;;;;;;27.45;14.68;;;;;;;7.15;42.34;94302.69;5054271;28;20413;-73
2021/12/24 10:09:17;;;;;;;32.42;16.92;;;;;;;6.09;45.01;94287.00;5055415;28;20029;-74
2021/12/24 10:11:57;;;;;;;31.70;15.27;;;;;;;9.34;38.85;94290.41;5054889;28;20021;-74
2021/12/24 10:14:30;;;;;;;25.90;15.27;;;;;;;8.49;39.72;94295.94;5054253;28;20025;-75
2021/12/24 10:16:56;;;;;;;22.33;13.38;;;;;;;8.15;40.81;94281.31;5054888;28;20045;-73
2021/12/24 10:19:21;;;;;;;23.55;13.27;;;;;;;9.27;39.40;94283.47;5055402;28;20130;-73
2021/12/24 10:21:56;;;;;;;24.30;14.27;;;;;;;8.66;39.34;94293.38;5054818;28;20025;-73
2021/12/24 10:24:23;;;;;;;25.77;14.38;;;;;;;7.83;41.21;94271.16;5053709;28;20047;-73
2021/12/24 10:26:51;;;;;;;29.05;13.38;;;;;;;7.68;41.51;94265.81;5054405;28;20365;-73
2021/12/24 10:29:19;;;;;;;21.65;13.95;;;;;;;8.53;39.96;94258.59;5054559;28;20032;-73
2021/12/24 10:31:56;;;;;;;22.95;14.35;;;;;;;8.58;40.19;94257.91;5054644;28;20393;-73
2021/12/24 10:34:23;;;;;;;22.25;14.38;;;;;;;8.07;41.34;94252.00;5054381;28;20052;-73
2021/12/24 10:36:49;;;;;;;22.42;14.07;;;;;;;7.42;42.66;94254.97;5054453;28;20059;-73
2021/12/24 10:39:14;;;;;;;23.13;14.05;;;;;;;8.07;41.23;94226.94;5055052;28;20076;-73
2021/12/24 10:41:45;;;;;;;27.73;14.45;;;;;;;7.71;41.73;94239.81;5055201;28;20025;-74
2021/12/24 10:44:16;;;;;;;26.13;15.00;;;;;;;6.98;43.05;94236.94;5053682;28;20033;-75
2021/12/24 10:46:56;;;;;;;31.70;15.50;;;;;;;5.85;45.55;94223.13;5055011;28;20040;-73
2021/12/24 10:49:36;;;;;;;32.65;15.80;;;;;;;5.99;46.31;94220.94;5054513;28;20060;-74
2021/12/24 10:52:28;;;;;;;28.58;14.93;;;;;;;6.18;46.18;94216.88;5054598;28;20025;-75
2021/12/24 10:54:55;;;;;;;31.02;16.48;;;;;;;5.86;46.93;94200.38;5054787;28;20024;-74
2021/12/24 10:57:23;;;;;;;28.15;15.02;;;;;;;6.12;46.43;94209.88;5053291;28;20182;-74
2021/12/24 10:59:51;;;;;;;34.58;16.27;;;;;;;6.30;46.29;94198.94;5053357;28;20029;-73
2021/12/24 11:02:18;;;;;;;28.45;15.27;;;;;;;6.74;44.85;94194.69;5054471;28;20109;-75
2021/12/24 11:04:44;;;;;;;28.05;15.00;;;;;;;6.35;45.99;94192.88;5054149;28;20029;-72
2021/12/24 11:07:36;;;;;;;23.25;14.80;;;;;;;5.99;46.97;94194.00;5054074;28;20417;-73
2021/12/24 11:10:12;;;;;;;27.48;15.38;;;;;;;6.01;47.40;94186.19;5049912;28;20068;-73
2021/12/24 11:12:55;;;;;;;25.23;13.50;;;;;;;5.84;47.57;94173.16;5054200;28;20433;-73
2021/12/24 11:15:31;;;;;;;23.67;14.63;;;;;;;5.84;48.33;94162.38;5053647;28;20033;-72
2021/12/24 11:18:00;;;;;;;32.45;14.88;;;;;;;6.11;47.37;94179.53;5053582;28;20045;-72
2021/12/24 11:20:27;;;;;;;37.38;16.67;;;;;;;6.31;47.45;94170.00;5054714;28;20029;-72
2021/12/24 11:23:03;;;;;;;24.60;14.98;;;;;;;6.49;46.97;94161.72;5053810;28;20481;-73
2021/12/24 11:25:36;;;;;;;24.42;14.48;;;;;;;6.62;46.64;94160.69;5053985;28;20039;-74
2021/12/24 11:28:03;;;;;;;33.65;14.38;;;;;;;6.56;46.43;94150.53;5054030;28;20032;-75
2021/12/24 11:30:30;;;;;;;21.60;12.10;;;;;;;6.43;48.62;94147.41;5054370;28;20052;-75
2021/12/24 11:32:56;;;;;;;20.80;8.40;;;;;;;7.16;49.85;94146.88;5053742;28;20028;-74
2021/12/24 11:35:23;;;;;;;11.68;2.50;;;;;;;7.76;49.71;94136.50;5055018;28;20025;-73
2021/12/24 11:37:51;;;;;;;15.10;2.40;;;;;;;7.58;50.68;94138.28;5063978;28;20031;-75
2021/12/24 11:40:19;;;;;;;4.50;2.08;;;;;;;7.66;49.80;94135.91;5076674;28;20032;-75
2021/12/24 11:42:50;;;;;;;7.13;2.45;;;;;;;7.92;49.60;94135.16;5072598;28;20116;-73
2021/12/24 11:45:16;;;;;;;8.75;2.45;;;;;;;7.94;49.68;94132.72;5064478;28;20169;-73
2021/12/24 11:47:42;;;;;;;7.28;2.42;;;;;;;7.95;49.31;94137.66;5064125;28;20028;-75
2021/12/24 11:50:08;;;;;;;3.35;2.38;;;;;;;8.20;48.92;94132.69;5062194;28;20025;-74
2021/12/24 11:52:35;;;;;;;4.28;2.78;;;;;;;8.24;48.53;94146.72;5064195;28;20450;-74
2021/12/24 11:55:01;;;;;;;17.67;2.70;;;;;;;7.92;49.26;94127.81;5062528;28;20108;-73
2021/12/24 11:57:27;;;;;;;13.63;3.40;;;;;;;8.17;49.45;94133.66;5054076;28;20116;-73
2021/12/24 11:59:53;;;;;;;6.80;2.38;;;;;;;8.11;48.56;94127.44;5053751;28;20025;-73
2021/12/24 12:02:45;;;;;;;6.60;2.65;;;;;;;8.46;48.21;94145.44;5053634;28;20363;-73
2021/12/24 12:05:13;;;;;;;6.68;2.65;;;;;;;8.27;48.86;94134.94;5053845;28;20020;-73
2021/12/24 12:07:39;;;;;;;3.78;2.20;;;;;;;8.28;48.74;94136.44;5053934;28;20454;-73
2021/12/24 12:10:05;;;;;;;3.55;1.98;;;;;;;8.14;48.79;94121.09;5052345;28;20127;-73
2021/12/24 12:12:35;;;;;;;10.30;2.00;;;;;;;8.17;48.97;94135.63;5053681;28;20108;-73
2021/12/24 12:15:55;;;;;;;11.93;2.28;;;;;;;8.14;48.99;94121.09;5053058;28;20029;-74
2021/12/24 12:18:28;;;;;;;5.25;2.17;;;;;;;8.03;48.94;94121.00;5051198;28;20048;-73
2021/12/24 12:21:09;;;;;;;2.42;1.92;;;;;;;7.98;49.38;94135.22;5051685;28;20033;-72
2021/12/24 12:26:43;;;;;;;14.65;2.88;;;;;;;8.01;49.18;94124.19;5069013;28;20033;-74
2021/12/24 12:29:23;;;;;;;7.60;2.60;;;;;;;8.10;49.53;94109.78;5053120;28;20036;-74
2021/12/24 12:31:53;;;;;;;7.35;2.50;;;;;;;8.02;49.52;94114.13;5052574;28;20036;-73
2021/12/24 12:34:37;;;;;;;5.78;2.10;;;;;;;8.02;49.55;94101.34;5052875;28;20028;-73
2021/12/24 12:37:22;;;;;;;7.35;2.60;;;;;;;7.97;49.88;94102.03;5052548;28;20032;-72
2021/12/24 12:39:51;;;;;;;4.18;2.28;;;;;;;8.04;49.22;94093.50;5051526;28;20041;-72
2021/12/24 12:42:20;;;;;;;2.60;1.90;;;;;;;8.13;48.62;94087.19;5052656;28;20051;-72
2021/12/24 12:44:53;;;;;;;7.15;2.35;;;;;;;8.13;49.34;94092.59;5052648;28;20053;-73
2021/12/24 12:47:21;;;;;;;4.85;2.50;;;;;;;8.24;48.62;94081.13;5053131;28;20025;-72
2021/12/24 12:49:47;;;;;;;4.85;2.22;;;;;;;8.18;48.87;94094.59;5051599;28;20029;-73
2021/12/24 12:52:41;;;;;;;3.58;2.38;;;;;;;8.23;48.92;94088.47;5052535;28;20093;-74
2021/12/24 12:55:26;;;;;;;5.72;2.00;;;;;;;8.34;48.80;94092.47;5050934;28;20037;-74
2021/12/24 12:57:51;;;;;;;10.32;2.38;;;;;;;8.35;48.78;94093.97;5056098;28;20029;-74
2021/12/24 13:00:27;;;;;;;3.15;2.15;;;;;;;8.24;48.80;94089.97;5055508;28;20435;-74
2021/12/24 13:02:56;;;;;;;3.45;2.47;;;;;;;8.25;49.47;94067.13;5056348;28;20021;-74
2021/12/24 13:05:22;;;;;;;3.97;2.38;;;;;;;8.31;49.30;94085.34;5056706;28;20025;-73
2021/12/24 13:07:48;;;;;;;2.67;1.88;;;;;;;8.26;48.63;94082.13;5055270;28;20492;-72
2021/12/24 13:10:17;;;;;;;4.15;2.25;;;;;;;8.33;48.65;94067.41;5055127;28;20028;-72
2021/12/24 13:12:43;;;;;;;4.70;2.22;;;;;;;8.33;48.73;94091.75;5056169;28;20459;-72
2021/12/24 13:15:15;;;;;;;5.07;2.15;;;;;;;8.37;48.50;94075.28;5056212;28;20024;-72
2021/12/24 13:17:46;;;;;;;6.15;2.45;;;;;;;8.39;48.37;94070.88;5056241;28;20053;-72
2021/12/24 13:20:32;;;;;;;3.55;2.50;;;;;;;8.35;48.70;94075.03;5056120;28;20036;-72
2021/12/24 13:22:57;;;;;;;3.03;2.20;;;;;;;8.46;48.60;94053.50;5056340;28;20446;-72
2021/12/24 13:25:24;;;;;;;3.78;2.40;;;;;;;8.41;48.46;94060.34;5055965;28;20039;-72